Terminal Aerodrome Forecast
Issued by NWS Albuquerque, NM

Home | Current Version | Previous Version | Text Only | Print | Product List | Glossary On
Versions: 1 2 3 4 5 6 7 8 9 10 11 12
000
FTUS45 KABQ 062338
TAFABQ
TAF
KABQ 062338Z 0700/0724 19028G40KT P6SM FEW090
     FM070200 19015G25KT P6SM FEW090
     FM070400 16011KT P6SM FEW100
     FM071500 23012KT P6SM FEW100
     FM071900 23015G25KT P6SM SCT100=

USA.gov is the U.S. government's official web portal to all federal, state and local government web resources and services.